Time;durP1;ratioP1;P1;durP2;ratioP2;P2;SDS_P1;SDS_P2;PMS_P1;PMS_P2;Temp;Humidity;BMP_temperature;BMP_pressure;BME280_temperature;BME280_humidity;BME280_pressure;Samples;Min_cycle;Max_cycle;Signal;HPM_P1;HPM_P2
2023/02/04 00:00:01;;;;;;;6.53;2.97;;;;;;;0.04;100.00;92922.44;5066988;28;20497;-69
2023/02/04 00:02:28;;;;;;;11.95;5.57;;;;;;;0.05;100.00;92923.25;5071119;28;20044;-69
2023/02/04 00:04:55;;;;;;;9.38;5.10;;;;;;;0.04;100.00;92919.91;5070814;28;20044;-69
2023/02/04 00:07:21;;;;;;;6.05;3.53;;;;;;;0.04;100.00;92916.63;5068782;28;20496;-69
2023/02/04 00:09:52;;;;;;;5.75;3.83;;;;;;;0.04;100.00;92917.38;5066745;28;20098;-71
2023/02/04 00:12:19;;;;;;;8.88;4.50;;;;;;;0.07;100.00;92917.09;5070475;28;20404;-70
2023/02/04 00:14:46;;;;;;;9.30;5.10;;;;;;;0.16;100.00;92917.13;5070356;28;20102;-71
2023/02/04 00:17:13;;;;;;;10.65;5.35;;;;;;;0.18;100.00;92897.56;5070372;28;20045;-71
2023/02/04 00:19:40;;;;;;;9.32;5.07;;;;;;;0.10;100.00;92886.47;5070152;28;20090;-71
2023/02/04 00:22:07;;;;;;;19.92;7.45;;;;;;;-0.02;100.00;92877.59;5069977;28;20497;-71
2023/02/04 00:24:34;;;;;;;15.43;5.82;;;;;;;0.17;100.00;92908.59;5069756;28;20586;-71
2023/02/04 00:27:02;;;;;;;18.08;6.70;;;;;;;0.13;100.00;92906.38;5070241;28;20040;-71
2023/02/04 00:29:29;;;;;;;23.42;8.63;;;;;;;0.09;100.00;92907.63;5070078;28;20110;-70
2023/02/04 00:31:56;;;;;;;7.43;3.92;;;;;;;0.00;100.00;92906.03;5069879;28;20041;-71
2023/02/04 00:34:23;;;;;;;4.68;3.28;;;;;;;-0.03;100.00;92901.28;5069841;28;20094;-71
2023/02/04 00:36:50;;;;;;;6.28;2.70;;;;;;;0.05;100.00;92918.97;5069764;28;20817;-70
2023/02/04 00:39:19;;;;;;;6.78;3.13;;;;;;;0.11;100.00;92918.38;5067266;28;20048;-70
2023/02/04 00:41:46;;;;;;;12.98;5.13;;;;;;;0.17;100.00;92924.53;5069649;28;20496;-70
2023/02/04 00:44:14;;;;;;;14.07;5.22;;;;;;;0.24;100.00;92925.50;5069527;28;20086;-70
2023/02/04 00:46:41;;;;;;;18.95;7.05;;;;;;;0.25;100.00;92911.94;5069682;28;20041;-71
2023/02/04 00:49:09;;;;;;;13.45;4.75;;;;;;;0.37;100.00;92911.66;5069590;28;20044;-70
2023/02/04 00:51:37;;;;;;;7.00;3.17;;;;;;;0.30;100.00;92903.91;5069465;28;20143;-70
2023/02/04 00:54:04;;;;;;;6.68;3.13;;;;;;;0.36;100.00;92903.28;5069789;28;20389;-71
2023/02/04 00:56:31;;;;;;;7.22;3.50;;;;;;;0.43;100.00;92906.00;5069105;28;20044;-72
2023/02/04 00:58:58;;;;;;;11.90;5.20;;;;;;;0.46;100.00;92895.56;5069753;28;20443;-71
2023/02/04 01:01:26;;;;;;;5.88;2.97;;;;;;;0.37;100.00;92884.66;5069432;28;20094;-71
2023/02/04 01:03:52;;;;;;;5.53;2.58;;;;;;;0.25;100.00;92879.13;5069101;28;20082;-69
2023/02/04 01:06:19;;;;;;;5.05;2.30;;;;;;;0.15;100.00;92875.94;5069470;28;20040;-70
2023/02/04 01:08:46;;;;;;;3.83;2.45;;;;;;;0.15;100.00;92880.97;5069086;28;20041;-70
2023/02/04 01:11:13;;;;;;;5.72;3.22;;;;;;;0.09;100.00;92869.75;5068757;28;20056;-70
2023/02/04 01:13:39;;;;;;;4.10;2.20;;;;;;;0.06;100.00;92876.84;5069409;28;20037;-71
2023/02/04 01:16:06;;;;;;;4.45;2.40;;;;;;;0.07;100.00;92860.72;5069285;28;20090;-70
2023/02/04 01:18:34;;;;;;;4.53;3.00;;;;;;;0.03;100.00;92861.97;5068698;28;20377;-70
2023/02/04 01:21:01;;;;;;;5.57;3.13;;;;;;;-0.04;100.00;92862.59;5069139;28;20488;-69
2023/02/04 01:23:28;;;;;;;5.32;2.75;;;;;;;-0.03;100.00;92850.78;5069187;28;20049;-69
2023/02/04 01:25:54;;;;;;;4.38;2.67;;;;;;;-0.06;100.00;92841.78;5069202;28;20040;-69
2023/02/04 01:28:21;;;;;;;5.70;2.90;;;;;;;-0.09;100.00;92846.34;5069066;28;20052;-71
2023/02/04 01:30:48;;;;;;;4.03;2.65;;;;;;;-0.05;100.00;92845.09;5068422;28;20048;-71
2023/02/04 01:33:15;;;;;;;5.47;3.35;;;;;;;-0.06;100.00;92841.78;5068578;28;20066;-71
2023/02/04 01:35:43;;;;;;;5.90;2.80;;;;;;;-0.03;100.00;92848.25;5069034;28;20044;-71
2023/02/04 01:38:09;;;;;;;4.32;2.90;;;;;;;0.03;100.00;92844.31;5069040;28;20712;-71
2023/02/04 01:40:36;;;;;;;3.67;2.67;;;;;;;0.05;100.00;92840.69;5069040;28;20041;-71
2023/02/04 01:43:03;;;;;;;5.07;3.05;;;;;;;-0.01;100.00;92834.53;5068657;28;20539;-70
2023/02/04 01:45:33;;;;;;;3.25;2.35;;;;;;;-0.03;100.00;92840.66;5068590;28;20049;-70
2023/02/04 01:48:00;;;;;;;4.70;2.97;;;;;;;-0.01;100.00;92837.06;5068631;28;20090;-70
2023/02/04 01:50:27;;;;;;;5.32;2.60;;;;;;;0.01;100.00;92836.91;5068827;28;20110;-71
2023/02/04 01:52:55;;;;;;;5.10;3.00;;;;;;;0.03;100.00;92827.44;5068623;28;20109;-71
2023/02/04 01:55:26;;;;;;;3.47;2.40;;;;;;;0.00;100.00;92820.19;5068889;28;20044;-71
2023/02/04 01:57:54;;;;;;;5.25;2.45;;;;;;;-0.04;100.00;92808.78;5068093;28;20044;-71
2023/02/04 02:00:26;;;;;;;4.25;2.80;;;;;;;0.02;100.00;92813.22;5068874;28;20052;-70
2023/02/04 02:02:55;;;;;;;4.38;2.65;;;;;;;0.03;100.00;92802.19;5068180;28;20051;-69
2023/02/04 02:05:24;;;;;;;4.95;2.90;;;;;;;0.05;100.00;92810.38;5068487;28;20090;-69
2023/02/04 02:07:53;;;;;;;3.97;2.20;;;;;;;0.07;100.00;92807.69;5068411;28;20048;-70
2023/02/04 02:10:22;;;;;;;3.97;2.58;;;;;;;0.02;100.00;92808.19;5068272;28;20045;-70
2023/02/04 02:12:49;;;;;;;4.13;2.13;;;;;;;0.03;100.00;92798.84;5068707;28;20052;-70
2023/02/04 02:15:17;;;;;;;3.60;2.38;;;;;;;0.03;100.00;92799.66;5068571;28;20044;-69
2023/02/04 02:17:44;;;;;;;4.20;2.30;;;;;;;0.03;100.00;92797.13;5068546;28;20451;-70
2023/02/04 02:20:14;;;;;;;3.33;2.15;;;;;;;0.08;100.00;92789.88;5068308;28;20044;-70
2023/02/04 02:22:47;;;;;;;6.28;2.10;;;;;;;-0.03;100.00;92785.13;5068562;28;20442;-70
2023/02/04 02:25:15;;;;;;;4.47;2.30;;;;;;;0.02;100.00;92784.66;5068009;28;20037;-70
2023/02/04 02:27:43;;;;;;;4.28;2.50;;;;;;;0.05;100.00;92777.53;5068488;28;20041;-69
2023/02/04 02:30:11;;;;;;;3.85;1.83;;;;;;;0.03;100.00;92761.78;5068365;28;20435;-70
2023/02/04 02:32:39;;;;;;;5.68;2.53;;;;;;;-0.02;100.00;92761.44;5068501;28;20044;-69
2023/02/04 02:35:07;;;;;;;5.10;2.30;;;;;;;-0.09;100.00;92751.16;5068126;28;20094;-69
2023/02/04 02:37:33;;;;;;;3.53;2.08;;;;;;;-0.09;100.00;92740.31;5068090;28;20044;-70
2023/02/04 02:40:00;;;;;;;4.20;1.88;;;;;;;-0.10;100.00;92743.78;5068337;28;20090;-70
2023/02/04 02:42:30;;;;;;;2.80;2.03;;;;;;;-0.06;100.00;92748.34;5071431;28;20049;-71
2023/02/04 02:44:57;;;;;;;4.20;2.58;;;;;;;0.02;100.00;92744.25;5066594;28;20041;-71
2023/02/04 02:47:25;;;;;;;3.60;2.28;;;;;;;0.05;100.00;92747.25;5072232;28;20045;-70
2023/02/04 02:49:53;;;;;;;4.55;2.50;;;;;;;0.09;100.00;92750.28;5072143;28;20052;-70
2023/02/04 02:52:21;;;;;;;5.47;2.65;;;;;;;0.05;100.00;92716.94;5072090;28;20109;-70
2023/02/04 02:54:49;;;;;;;4.55;3.05;;;;;;;0.10;100.00;92724.06;5072093;28;20044;-70
2023/02/04 02:57:17;;;;;;;5.13;3.38;;;;;;;0.15;100.00;92734.47;5071946;28;20049;-71
2023/02/04 02:59:46;;;;;;;5.07;3.40;;;;;;;0.16;100.00;92723.44;5072043;28;20569;-71
2023/02/04 03:02:16;;;;;;;5.97;2.70;;;;;;;0.18;100.00;92710.66;5071392;28;20044;-70
2023/02/04 03:04:46;;;;;;;3.15;2.35;;;;;;;0.15;100.00;92688.22;5071593;28;20053;-70
2023/02/04 03:07:13;;;;;;;5.60;2.20;;;;;;;0.05;100.00;92678.28;5071373;28;20045;-70
2023/02/04 03:09:40;;;;;;;4.47;2.78;;;;;;;0.03;100.00;92703.69;5071498;28;20496;-70
2023/02/04 03:12:07;;;;;;;6.70;3.15;;;;;;;0.09;100.00;92700.53;5071626;28;20044;-70
2023/02/04 03:14:35;;;;;;;3.92;2.63;;;;;;;0.11;100.00;92701.19;5071266;28;20044;-70
2023/02/04 03:17:05;;;;;;;5.65;3.50;;;;;;;0.10;100.00;92697.06;5071611;28;20044;-69
2023/02/04 03:19:32;;;;;;;7.05;3.40;;;;;;;0.10;100.00;92696.28;5071384;28;21226;-69
2023/02/04 03:22:00;;;;;;;6.63;3.20;;;;;;;0.08;100.00;92698.16;5071558;28;20045;-70
2023/02/04 03:24:27;;;;;;;5.00;3.13;;;;;;;0.02;100.00;92681.91;5071209;28;20098;-70
2023/02/04 03:26:54;;;;;;;8.05;3.47;;;;;;;0.02;100.00;92686.97;5070850;28;20543;-70
2023/02/04 03:29:21;;;;;;;5.00;3.47;;;;;;;0.07;100.00;92704.16;5071296;28;20040;-70
2023/02/04 03:31:47;;;;;;;4.43;3.63;;;;;;;0.11;100.00;92685.22;5070961;28;20102;-70
2023/02/04 03:34:16;;;;;;;4.85;3.08;;;;;;;0.16;100.00;92720.09;5071041;28;20094;-71
2023/02/04 03:36:42;;;;;;;4.85;3.10;;;;;;;0.17;100.00;92698.94;5071324;28;20048;-71
2023/02/04 03:39:09;;;;;;;4.53;2.50;;;;;;;0.19;100.00;92702.88;5071286;28;20459;-70
2023/02/04 03:41:36;;;;;;;6.38;2.85;;;;;;;0.25;100.00;92707.34;5071165;28;20098;-71
2023/02/04 03:44:02;;;;;;;5.28;3.40;;;;;;;0.31;100.00;92713.47;5070902;28;20515;-70
2023/02/04 03:46:29;;;;;;;8.02;3.70;;;;;;;0.26;100.00;92695.47;5070976;28;20090;-70
2023/02/04 03:48:56;;;;;;;4.13;2.60;;;;;;;0.22;100.00;92691.69;5071333;28;20566;-69
2023/02/04 03:51:24;;;;;;;5.55;3.40;;;;;;;0.27;100.00;92684.41;5070969;28;20052;-69
2023/02/04 03:53:51;;;;;;;5.05;2.92;;;;;;;0.25;100.00;92686.31;5070233;28;20058;-70
2023/02/04 03:56:17;;;;;;;6.13;3.50;;;;;;;0.25;100.00;92666.13;5070977;28;20102;-70
2023/02/04 03:58:44;;;;;;;5.82;2.90;;;;;;;0.23;100.00;92668.78;5070949;28;20098;-70
2023/02/04 04:01:11;;;;;;;5.45;2.97;;;;;;;0.26;100.00;92671.00;5071184;28;20081;-70
2023/02/04 04:03:37;;;;;;;5.72;2.83;;;;;;;0.29;100.00;92672.44;5071434;28;20045;-70
2023/02/04 04:06:07;;;;;;;4.20;3.00;;;;;;;0.32;100.00;92668.78;5071018;28;20048;-70
2023/02/04 04:08:35;;;;;;;5.15;3.30;;;;;;;0.36;100.00;92657.41;5071020;28;20076;-70
2023/02/04 04:11:02;;;;;;;6.13;3.45;;;;;;;0.31;100.00;92654.56;5071042;28;20049;-70
2023/02/04 04:13:29;;;;;;;4.82;3.30;;;;;;;0.31;100.00;92650.31;5070776;28;20128;-70
2023/02/04 04:15:55;;;;;;;5.47;3.75;;;;;;;0.28;100.00;92655.69;5070893;28;20086;-70
2023/02/04 04:18:22;;;;;;;7.30;3.95;;;;;;;0.26;100.00;92648.28;5071250;28;20040;-70
2023/02/04 04:20:49;;;;;;;6.82;3.85;;;;;;;0.30;100.00;92648.75;5070808;28;20113;-70
2023/02/04 04:23:15;;;;;;;6.03;3.30;;;;;;;0.24;100.00;92642.56;5070466;28;20044;-70
2023/02/04 04:25:43;;;;;;;5.45;3.20;;;;;;;0.20;100.00;92646.41;5070660;28;20094;-70
2023/02/04 04:28:10;;;;;;;7.38;3.90;;;;;;;0.23;100.00;92646.06;5070624;28;20436;-70
2023/02/04 04:30:37;;;;;;;7.50;4.85;;;;;;;0.24;100.00;92645.09;5070722;28;20146;-70
2023/02/04 04:33:04;;;;;;;5.97;4.07;;;;;;;0.23;100.00;92637.72;5070603;28;20444;-70
2023/02/04 04:35:30;;;;;;;5.55;2.80;;;;;;;0.17;100.00;92641.66;5070487;28;20113;-70
2023/02/04 04:37:57;;;;;;;5.43;3.22;;;;;;;0.22;100.00;92652.06;5070487;28;20098;-70
2023/02/04 04:40:24;;;;;;;6.38;3.67;;;;;;;0.18;100.00;92647.50;5070267;28;20075;-70
2023/02/04 04:42:52;;;;;;;7.57;3.72;;;;;;;0.25;100.00;92654.28;5070022;28;20052;-70
2023/02/04 04:45:19;;;;;;;8.35;3.47;;;;;;;0.24;100.00;92655.22;5070503;28;20040;-70
2023/02/04 04:47:46;;;;;;;5.78;3.97;;;;;;;0.26;100.00;92665.16;5069690;28;20091;-70
2023/02/04 04:50:12;;;;;;;6.68;3.92;;;;;;;0.27;100.00;92671.78;5070296;28;20567;-70
2023/02/04 04:52:39;;;;;;;6.72;4.68;;;;;;;0.37;100.00;92662.31;5069730;28;20102;-70
2023/02/04 04:55:07;;;;;;;8.02;3.85;;;;;;;0.35;100.00;92659.16;5070236;28;20052;-70
2023/02/04 04:57:34;;;;;;;4.43;2.80;;;;;;;0.36;100.00;92655.69;5069386;28;20439;-71
2023/02/04 05:00:02;;;;;;;7.53;2.80;;;;;;;0.38;100.00;92671.44;5029743;28;20099;-70
2023/02/04 05:02:28;;;;;;;4.70;3.40;;;;;;;0.32;100.00;92671.31;5029704;28;20041;-70
2023/02/04 05:04:55;;;;;;;5.55;3.20;;;;;;;0.30;100.00;92663.09;5029279;28;20107;-70
2023/02/04 05:07:22;;;;;;;6.55;3.17;;;;;;;0.35;100.00;92673.50;5003883;28;20092;-70
2023/02/04 05:09:49;;;;;;;8.00;3.97;;;;;;;0.37;100.00;92672.41;5029544;28;20049;-70
2023/02/04 05:12:15;;;;;;;11.55;4.88;;;;;;;0.38;100.00;92666.41;5029767;28;20502;-70
2023/02/04 05:14:42;;;;;;;7.47;5.40;;;;;;;0.36;100.00;92673.34;5029355;28;20053;-70
2023/02/04 05:17:11;;;;;;;10.52;5.57;;;;;;;0.38;100.00;92678.25;5029443;28;20049;-70
2023/02/04 05:19:38;;;;;;;11.57;5.95;;;;;;;0.35;100.00;92679.38;5029586;28;20049;-70
2023/02/04 05:22:04;;;;;;;9.13;4.50;;;;;;;0.32;100.00;92677.16;5020216;28;20100;-70
2023/02/04 05:24:31;;;;;;;6.70;3.35;;;;;;;0.28;100.00;92672.59;5022234;28;20049;-70
2023/02/04 05:26:58;;;;;;;9.18;3.83;;;;;;;0.29;100.00;92669.09;5012988;28;20113;-70
2023/02/04 05:29:25;;;;;;;8.00;3.30;;;;;;;0.26;100.00;92681.13;5019025;28;20482;-70
2023/02/04 05:31:51;;;;;;;11.32;3.90;;;;;;;0.20;100.00;92691.06;5012643;28;20056;-70
2023/02/04 05:34:19;;;;;;;9.05;3.40;;;;;;;0.21;100.00;92695.97;5021724;28;20045;-70
2023/02/04 05:36:46;;;;;;;11.82;3.42;;;;;;;0.20;100.00;92698.63;5026006;28;20119;-70
2023/02/04 05:39:13;;;;;;;8.95;3.05;;;;;;;0.18;100.00;92687.91;5029539;28;20103;-70
2023/02/04 05:41:39;;;;;;;8.60;3.22;;;;;;;0.21;100.00;92685.84;5028957;28;20564;-69
2023/02/04 05:44:06;;;;;;;11.05;3.63;;;;;;;0.27;100.00;92681.88;5020825;28;20054;-69
2023/02/04 05:46:33;;;;;;;9.68;4.88;;;;;;;0.31;100.00;92697.50;5028886;28;20041;-69
2023/02/04 05:49:00;;;;;;;9.10;5.35;;;;;;;0.41;100.00;92698.13;5029222;28;20053;-69
2023/02/04 05:51:28;;;;;;;16.83;8.27;;;;;;;0.48;100.00;92701.63;5028714;28;20041;-69
2023/02/04 05:53:54;;;;;;;24.23;11.68;;;;;;;0.52;100.00;92707.13;5028981;28;20490;-69
2023/02/04 05:56:21;;;;;;;17.80;9.57;;;;;;;0.60;100.00;92716.44;5029016;28;20045;-70
2023/02/04 05:58:48;;;;;;;17.25;7.65;;;;;;;0.55;100.00;92706.03;5049107;28;20097;-69
2023/02/04 06:01:14;;;;;;;23.05;12.85;;;;;;;0.15;100.00;92705.91;5066648;28;20497;-69
2023/02/04 06:03:41;;;;;;;23.90;13.48;;;;;;;0.00;100.00;92721.69;5059768;28;20086;-69
2023/02/04 06:06:08;;;;;;;15.23;9.15;;;;;;;0.06;100.00;92702.59;5068798;28;20048;-70
2023/02/04 06:08:36;;;;;;;17.38;10.18;;;;;;;0.14;100.00;92710.19;5068642;28;20045;-70
2023/02/04 06:11:03;;;;;;;13.55;8.73;;;;;;;0.23;100.00;92716.00;5068342;28;20551;-70
2023/02/04 06:13:29;;;;;;;17.33;8.63;;;;;;;0.15;100.00;92696.59;5068463;28;20522;-70
2023/02/04 06:15:56;;;;;;;19.80;11.00;;;;;;;0.33;100.00;92719.16;5069139;28;20041;-70
2023/02/04 06:18:23;;;;;;;26.10;14.15;;;;;;;0.41;100.00;92715.81;5072867;28;20045;-70
2023/02/04 06:20:50;;;;;;;24.92;13.48;;;;;;;0.44;100.00;92715.53;5072816;28;20044;-70
2023/02/04 06:23:16;;;;;;;26.02;13.30;;;;;;;0.50;100.00;92709.03;5072796;28;20044;-70
2023/02/04 06:25:46;;;;;;;23.55;14.45;;;;;;;0.55;100.00;92706.81;5072622;28;20053;-70
2023/02/04 06:28:13;;;;;;;18.88;10.30;;;;;;;0.49;100.00;92670.34;5072409;28;20044;-70
2023/02/04 06:30:39;;;;;;;20.15;12.50;;;;;;;0.78;100.00;92701.88;5072924;28;20404;-70
2023/02/04 06:33:06;;;;;;;20.52;11.65;;;;;;;0.85;100.00;92703.75;5072827;28;20056;-70
2023/02/04 06:35:33;;;;;;;25.23;13.88;;;;;;;0.86;100.00;92692.66;5072252;28;20041;-70
2023/02/04 06:37:59;;;;;;;18.05;12.35;;;;;;;0.88;100.00;92704.19;5072745;28;20040;-70
2023/02/04 06:40:26;;;;;;;21.45;12.35;;;;;;;0.92;100.00;92709.72;5039540;28;20554;-70
2023/02/04 06:42:54;;;;;;;23.52;13.95;;;;;;;0.91;100.00;92711.47;5066215;28;20053;-70
2023/02/04 06:45:21;;;;;;;24.80;14.88;;;;;;;0.96;100.00;92700.09;5072940;28;20094;-70
2023/02/04 06:47:48;;;;;;;22.55;12.88;;;;;;;1.04;100.00;92703.38;5072028;28;20094;-70
2023/02/04 06:50:17;;;;;;;29.25;14.88;;;;;;;1.10;100.00;92689.25;5072608;28;20048;-70
2023/02/04 06:52:44;;;;;;;25.33;13.95;;;;;;;1.19;100.00;92700.13;5071056;28;20053;-70
2023/02/04 06:55:11;;;;;;;12.80;7.32;;;;;;;1.19;100.00;92702.66;5060779;28;20475;-70
2023/02/04 06:57:38;;;;;;;14.38;6.97;;;;;;;1.23;100.00;92700.59;5071966;28;20044;-70
2023/02/04 07:00:08;;;;;;;11.23;5.20;;;;;;;1.28;100.00;92695.81;5072336;28;20463;-70
2023/02/04 07:02:35;;;;;;;14.98;6.03;;;;;;;1.15;100.00;92668.56;5071797;28;20049;-70
2023/02/04 07:05:02;;;;;;;14.25;5.47;;;;;;;1.29;100.00;92689.84;5067241;28;20581;-70
2023/02/04 07:07:29;;;;;;;10.82;5.15;;;;;;;1.38;100.00;92698.94;5069771;28;20044;-70
2023/02/04 07:09:56;;;;;;;13.15;5.07;;;;;;;1.39;100.00;92692.16;5071200;28;20048;-70
2023/02/04 07:12:23;;;;;;;10.85;5.35;;;;;;;1.42;100.00;92700.19;5071559;28;20093;-70
2023/02/04 07:14:49;;;;;;;9.85;5.20;;;;;;;1.24;100.00;92690.31;5071740;28;20448;-70
2023/02/04 07:17:17;;;;;;;14.27;7.80;;;;;;;1.38;100.00;92685.53;5072047;28;20052;-70
2023/02/04 07:19:44;;;;;;;8.13;4.78;;;;;;;1.32;100.00;92687.75;5071962;28;20048;-70
2023/02/04 07:22:11;;;;;;;28.10;13.00;;;;;;;1.33;100.00;92680.94;5069136;28;20048;-71
2023/02/04 07:24:38;;;;;;;21.67;8.73;;;;;;;1.33;100.00;92664.03;5058339;28;20448;-71
2023/02/04 07:27:04;;;;;;;10.00;4.07;;;;;;;1.51;100.00;92677.34;5070880;28;20049;-70
2023/02/04 07:29:31;;;;;;;9.95;4.78;;;;;;;1.58;100.00;92683.34;5071273;28;20118;-70
2023/02/04 07:31:58;;;;;;;12.30;5.25;;;;;;;1.46;100.00;92688.78;5071271;28;20044;-70
2023/02/04 07:34:26;;;;;;;10.88;4.20;;;;;;;1.48;100.00;92686.06;5060617;28;20099;-70
2023/02/04 07:36:53;;;;;;;7.57;3.42;;;;;;;1.58;100.00;92691.72;5068154;28;20044;-70
2023/02/04 07:39:19;;;;;;;11.57;3.95;;;;;;;1.62;100.00;92687.09;5071145;28;20045;-70
2023/02/04 07:41:46;;;;;;;10.60;5.07;;;;;;;1.64;100.00;92687.75;5071174;28;20045;-70
2023/02/04 07:44:13;;;;;;;9.60;4.18;;;;;;;1.67;100.00;92696.75;5071170;28;20053;-70
2023/02/04 07:46:39;;;;;;;15.10;5.60;;;;;;;1.67;100.00;92692.44;5071618;28;20102;-70
2023/02/04 07:49:06;;;;;;;15.98;6.80;;;;;;;1.68;100.00;92691.53;5071476;28;20052;-70
2023/02/04 07:51:35;;;;;;;15.50;6.68;;;;;;;1.77;100.00;92686.38;5070871;28;20090;-70
2023/02/04 07:54:01;;;;;;;16.10;7.15;;;;;;;1.90;100.00;92689.13;5071188;28;20048;-70
2023/02/04 07:56:28;;;;;;;9.27;5.43;;;;;;;1.95;100.00;92691.19;5070820;28;20497;-71
2023/02/04 07:58:55;;;;;;;13.10;8.75;;;;;;;1.93;100.00;92677.88;5071370;28;20098;-70
2023/02/04 08:01:21;;;;;;;13.20;6.60;;;;;;;2.03;100.00;92691.09;5070840;28;20041;-70
2023/02/04 08:03:48;;;;;;;9.63;5.57;;;;;;;2.07;100.00;92691.56;5071199;28;20049;-70
2023/02/04 08:06:15;;;;;;;9.75;5.70;;;;;;;2.09;100.00;92687.13;5071055;28;20535;-70
2023/02/04 08:08:43;;;;;;;11.30;6.35;;;;;;;2.12;100.00;92689.28;5070714;28;20098;-69
2023/02/04 08:11:10;;;;;;;12.38;5.80;;;;;;;2.03;100.00;92670.06;5070772;28;20408;-70
2023/02/04 08:13:36;;;;;;;12.88;7.13;;;;;;;2.16;100.00;92687.22;5070626;28;20048;-70
2023/02/04 08:16:04;;;;;;;16.65;9.00;;;;;;;2.11;100.00;92688.53;5071020;28;20105;-69
2023/02/04 08:18:31;;;;;;;20.60;12.35;;;;;;;2.05;100.00;92685.88;5044605;28;20045;-70
2023/02/04 08:21:00;;;;;;;25.63;12.50;;;;;;;1.97;100.00;92689.25;5070933;28;20052;-70
2023/02/04 08:23:27;;;;;;;41.70;24.95;;;;;;;1.87;100.00;92686.97;5070748;28;20106;-69
2023/02/04 08:25:55;;;;;;;16.95;11.13;;;;;;;1.80;100.00;92684.31;5070537;28;20101;-70
2023/02/04 08:28:21;;;;;;;18.48;10.48;;;;;;;1.67;100.00;92679.78;5070712;28;20044;-69
2023/02/04 08:30:51;;;;;;;52.47;29.38;;;;;;;1.59;100.00;92667.97;5070322;28;20048;-70
2023/02/04 08:33:18;;;;;;;41.60;23.23;;;;;;;1.70;100.00;92688.78;5069766;28;20048;-70
2023/02/04 08:35:45;;;;;;;12.07;7.60;;;;;;;1.65;100.00;92680.91;5070154;28;20048;-69
2023/02/04 08:38:12;;;;;;;13.50;8.07;;;;;;;1.59;100.00;92680.63;5070142;28;20556;-69
2023/02/04 08:40:38;;;;;;;15.10;9.68;;;;;;;1.53;100.00;92678.00;5070574;28;20037;-69
2023/02/04 08:43:06;;;;;;;11.60;6.95;;;;;;;1.48;100.00;92675.19;5070181;28;20048;-69
2023/02/04 08:45:33;;;;;;;19.55;9.63;;;;;;;1.38;100.00;92668.56;5060735;28;20413;-70
2023/02/04 08:48:02;;;;;;;14.68;7.78;;;;;;;1.44;100.00;92682.31;5066403;28;20496;-70
2023/02/04 08:50:29;;;;;;;11.93;5.50;;;;;;;1.40;100.00;92674.28;5070228;28;20090;-70
2023/02/04 08:52:56;;;;;;;9.57;6.47;;;;;;;1.38;100.00;92671.09;5070144;28;20055;-69
2023/02/04 08:55:23;;;;;;;12.20;9.25;;;;;;;1.36;100.00;92675.56;5070314;28;20052;-70
2023/02/04 08:57:50;;;;;;;9.75;6.50;;;;;;;1.39;100.00;92666.84;5069664;28;20094;-70
2023/02/04 09:00:18;;;;;;;10.68;6.07;;;;;;;1.39;100.00;92671.91;5070140;28;20106;-70
2023/02/04 09:02:45;;;;;;;27.70;13.32;;;;;;;1.34;100.00;92669.84;5069698;28;20044;-70
2023/02/04 09:05:11;;;;;;;9.35;5.15;;;;;;;1.37;100.00;92672.06;5069524;28;20546;-70
2023/02/04 09:07:38;;;;;;;10.85;4.13;;;;;;;1.38;100.00;92670.34;5070143;28;20070;-70
2023/02/04 09:10:06;;;;;;;5.55;3.22;;;;;;;1.32;100.00;92667.50;5069634;28;20044;-70
2023/02/04 09:12:33;;;;;;;5.70;2.92;;;;;;;1.27;100.00;92667.22;5069294;28;20044;-69
2023/02/04 09:14:59;;;;;;;20.63;7.45;;;;;;;1.24;100.00;92662.47;5069863;28;20098;-69
2023/02/04 09:17:27;;;;;;;6.85;3.00;;;;;;;1.22;100.00;92659.34;5065663;28;20090;-69
2023/02/04 09:19:54;;;;;;;8.02;3.58;;;;;;;1.22;100.00;92663.59;5066932;28;20133;-69
2023/02/04 09:22:21;;;;;;;10.65;5.32;;;;;;;1.28;100.00;92675.59;5068271;28;20052;-69
2023/02/04 09:24:47;;;;;;;20.42;9.82;;;;;;;1.26;100.00;92672.44;5069206;28;20689;-69
2023/02/04 09:27:14;;;;;;;8.40;4.53;;;;;;;1.22;100.00;92658.53;5069076;28;20048;-69
2023/02/04 09:29:41;;;;;;;7.45;3.83;;;;;;;1.16;100.00;92649.88;5069627;28;20044;-69
2023/02/04 09:32:07;;;;;;;7.95;5.18;;;;;;;1.13;100.00;92655.25;5068885;28;20094;-69
2023/02/04 09:34:36;;;;;;;10.25;5.55;;;;;;;1.15;100.00;92659.22;5056907;28;20091;-69
2023/02/04 09:37:02;;;;;;;29.20;15.73;;;;;;;1.14;100.00;92657.63;5064766;28;20492;-70
2023/02/04 09:39:29;;;;;;;15.20;9.07;;;;;;;1.26;100.00;92667.38;5069408;28;20056;-69
2023/02/04 09:41:56;;;;;;;45.17;23.10;;;;;;;1.27;100.00;92672.28;5069253;28;20075;-69
2023/02/04 09:44:26;;;;;;;36.88;18.08;;;;;;;1.30;100.00;92663.56;5069428;28;20045;-69
2023/02/04 09:46:56;;;;;;;22.13;11.73;;;;;;;1.26;100.00;92652.19;5068819;28;20045;-69
2023/02/04 09:49:23;;;;;;;37.85;17.73;;;;;;;1.29;100.00;92656.94;5069027;28;20102;-69
2023/02/04 09:51:52;;;;;;;62.53;28.15;;;;;;;1.36;100.00;92655.31;5067732;28;20045;-69
2023/02/04 09:54:21;;;;;;;34.40;17.13;;;;;;;1.39;100.00;92654.19;5069020;28;20056;-70
2023/02/04 09:56:48;;;;;;;42.28;19.60;;;;;;;1.42;100.00;92649.56;5069164;28;20451;-69
2023/02/04 09:59:17;;;;;;;96.05;44.53;;;;;;;1.47;100.00;92644.00;5055832;28;20496;-69
2023/02/04 10:01:43;;;;;;;43.90;24.25;;;;;;;1.46;100.00;92639.91;5067635;28;20530;-69
2023/02/04 10:04:13;;;;;;;24.20;15.73;;;;;;;1.49;100.00;92641.31;5068961;28;20057;-69
2023/02/04 10:06:40;;;;;;;15.82;10.30;;;;;;;1.50;100.00;92635.28;5068764;28;20060;-69
2023/02/04 10:09:11;;;;;;;15.50;8.40;;;;;;;1.50;100.00;92638.63;5068798;28;20094;-69
2023/02/04 10:11:39;;;;;;;14.40;8.40;;;;;;;1.52;100.00;92631.63;5068911;28;20087;-69
2023/02/04 10:14:11;;;;;;;12.95;6.53;;;;;;;1.51;100.00;92631.78;5068738;28;20094;-69
2023/02/04 10:16:40;;;;;;;13.77;6.57;;;;;;;1.50;100.00;92628.50;5069001;28;20056;-69
2023/02/04 10:19:13;;;;;;;13.10;7.93;;;;;;;1.51;100.00;92626.72;5068411;28;20045;-69
2023/02/04 10:21:41;;;;;;;11.43;7.07;;;;;;;1.52;100.00;92616.44;5068841;28;20487;-69
2023/02/04 10:24:15;;;;;;;14.63;9.35;;;;;;;1.58;100.00;92620.84;5068849;28;20040;-69
2023/02/04 10:26:41;;;;;;;24.10;14.38;;;;;;;1.60;100.00;92613.06;5068896;28;20041;-69
2023/02/04 10:29:14;;;;;;;46.35;25.63;;;;;;;1.63;100.00;92611.94;5068378;28;20463;-69
2023/02/04 10:31:42;;;;;;;119.38;57.53;;;;;;;1.65;100.00;92608.28;5067982;28;20045;-69
2023/02/04 10:34:14;;;;;;;77.10;41.10;;;;;;;1.65;100.00;92610.03;5067613;28;20114;-69
2023/02/04 10:36:42;;;;;;;61.13;31.55;;;;;;;1.67;100.00;92608.13;5068406;28;20044;-69
2023/02/04 10:39:16;;;;;;;44.08;25.75;;;;;;;1.71;100.00;92611.91;5068454;28;20052;-69
2023/02/04 10:41:48;;;;;;;33.80;21.17;;;;;;;1.73;100.00;92599.84;5068085;28;20049;-69
2023/02/04 10:44:17;;;;;;;26.73;17.98;;;;;;;1.81;100.00;92604.06;5068864;28;20094;-70
2023/02/04 10:46:44;;;;;;;24.95;15.32;;;;;;;1.81;100.00;92597.25;5068201;28;20459;-70
2023/02/04 10:49:18;;;;;;;19.23;10.57;;;;;;;1.83;100.00;92592.00;5068272;28;20397;-69
2023/02/04 10:51:46;;;;;;;11.82;6.78;;;;;;;1.80;100.00;92589.84;5068077;28;20048;-69
2023/02/04 10:54:30;;;;;;;8.32;4.70;;;;;;;1.78;100.00;92594.25;5068395;28;20463;-70
2023/02/04 10:56:58;;;;;;;11.57;4.68;;;;;;;1.44;100.00;92525.41;5068193;28;20040;-70
2023/02/04 10:59:26;;;;;;;9.65;4.55;;;;;;;1.80;100.00;92585.53;5068341;28;20056;-69
2023/02/04 11:01:55;;;;;;;14.73;7.15;;;;;;;1.83;100.00;92576.81;5069116;28;20044;-69
2023/02/04 11:04:21;;;;;;;7.88;3.97;;;;;;;1.86;100.00;92571.41;5071714;28;20121;-70
2023/02/04 11:06:50;;;;;;;20.80;12.02;;;;;;;1.87;100.00;92575.53;5056155;28;20072;-69
2023/02/04 11:09:18;;;;;;;40.30;21.27;;;;;;;1.84;100.00;92553.06;5068146;28;20106;-69
2023/02/04 11:11:50;;;;;;;31.25;17.88;;;;;;;1.93;100.00;92564.69;5050441;28;20083;-69
2023/02/04 11:14:27;;;;;;;17.48;11.63;;;;;;;1.94;100.00;92568.78;5069761;28;20091;-69
2023/02/04 11:16:59;;;;;;;16.13;11.23;;;;;;;1.95;100.00;92559.47;5071351;28;20148;-69
2023/02/04 11:19:35;;;;;;;20.73;14.68;;;;;;;1.94;100.00;92556.13;5065667;28;20037;-69
2023/02/04 11:22:08;;;;;;;17.33;10.52;;;;;;;1.92;100.00;92558.06;5060842;28;20044;-69
2023/02/04 11:24:37;;;;;;;20.85;14.35;;;;;;;1.93;100.00;92546.16;5061585;28;20114;-69
2023/02/04 11:27:17;;;;;;;34.13;19.95;;;;;;;2.03;100.00;92554.31;5069241;28;20044;-69